createdAt,value
2018-06-16T00:00:11.249Z,74.44
2018-06-16T00:01:12.637Z,73.97
2018-06-16T00:02:14.026Z,74.54
2018-06-16T00:03:15.413Z,74.01
2018-06-16T00:04:16.800Z,74.35
2018-06-16T00:05:18.197Z,74.35
2018-06-16T00:06:19.584Z,74.16
2018-06-16T00:07:20.978Z,74.83
2018-06-16T00:08:22.365Z,74.73
2018-06-16T00:09:23.746Z,74.35
2018-06-16T00:10:25.141Z,74.06
2018-06-16T00:11:26.532Z,74.44
2018-06-16T00:12:27.906Z,74.06
2018-06-16T00:13:29.301Z,74.35
2018-06-16T00:14:30.679Z,74.73
2018-06-16T00:15:32.060Z,74.44
2018-06-16T00:16:33.460Z,74.48
2018-06-16T00:17:34.858Z,74.06
2018-06-16T00:18:36.247Z,73.97
2018-06-16T00:19:37.640Z,73.81
2018-06-16T00:20:39.019Z,73.68
2018-06-16T00:21:40.405Z,72.63
2018-06-16T00:22:41.792Z,73.87
2018-06-16T00:23:43.172Z,73.33
2018-06-16T00:24:44.557Z,73.49
2018-06-16T00:25:45.941Z,73.30
2018-06-16T00:26:47.331Z,72.81
2018-06-16T00:27:48.718Z,72.85
2018-06-16T00:28:50.102Z,72.56
2018-06-16T00:29:51.489Z,73.81
2018-06-16T00:30:52.879Z,73.33
2018-06-16T00:31:54.260Z,71.89
2018-06-16T00:32:55.645Z,72.18
2018-06-16T00:33:57.039Z,72.85
2018-06-16T00:34:58.417Z,71.86
2018-06-16T00:35:59.799Z,72.63
2018-06-16T00:37:01.191Z,72.05
2018-06-16T00:38:02.577Z,72.08
2018-06-16T00:39:03.968Z,72.47
2018-06-16T00:40:05.351Z,72.47
2018-06-16T00:41:06.732Z,71.89
2018-06-16T00:42:08.115Z,72.08
2018-06-16T00:43:09.513Z,71.89
2018-06-16T00:44:10.897Z,72.08
2018-06-16T00:45:12.288Z,72.66
2018-06-16T00:46:13.670Z,72.18
2018-06-16T00:47:15.063Z,72.14
2018-06-16T00:48:16.450Z,72.63
2018-06-16T00:49:17.832Z,73.14
2018-06-16T00:50:19.224Z,72.95
2018-06-16T00:51:20.612Z,72.75
2018-06-16T00:52:22.009Z,73.14
2018-06-16T00:53:23.389Z,73.24
2018-06-16T00:54:24.783Z,73.58
2018-06-16T00:55:26.164Z,73.04
2018-06-16T00:56:27.555Z,73.33
2018-06-16T00:57:28.945Z,73.33
2018-06-16T00:58:30.339Z,73.52
2018-06-16T00:59:31.723Z,73.68
2018-06-16T01:00:33.121Z,73.77
2018-06-16T01:01:34.507Z,73.77
2018-06-16T01:02:35.908Z,74.26
2018-06-16T01:03:37.285Z,74.44
2018-06-16T01:04:38.673Z,74.54
2018-06-16T01:05:40.624Z,74.16
2018-06-16T01:06:42.011Z,74.26
2018-06-16T01:07:43.403Z,74.64
2018-06-16T01:08:44.786Z,74.19
2018-06-16T01:09:46.174Z,74.26
2018-06-16T01:10:47.557Z,74.26
2018-06-16T01:11:48.948Z,74.06
2018-06-16T01:12:50.334Z,74.44
2018-06-16T01:13:51.710Z,74.64
2018-06-16T01:14:53.097Z,74.83
2018-06-16T01:15:54.488Z,75.02
2018-06-16T01:16:55.876Z,73.97
2018-06-16T01:17:57.254Z,74.26
2018-06-16T01:18:58.644Z,73.97
2018-06-16T01:20:00.040Z,74.16
2018-06-16T01:21:01.417Z,74.64
2018-06-16T01:22:02.811Z,74.06
2018-06-16T01:23:04.189Z,73.97
2018-06-16T01:24:05.582Z,74.44
2018-06-16T01:25:06.967Z,74.73
2018-06-16T01:26:08.355Z,74.73
2018-06-16T01:27:09.749Z,74.64
2018-06-16T01:28:11.131Z,75.02
2018-06-16T01:29:12.513Z,75.60
2018-06-16T01:30:13.909Z,75.40
2018-06-16T01:31:15.285Z,74.83
2018-06-16T01:32:16.668Z,75.21
2018-06-16T01:33:18.055Z,74.93
2018-06-16T01:34:19.451Z,74.83
2018-06-16T01:35:20.830Z,74.83
2018-06-16T01:36:22.218Z,74.54
2018-06-16T01:37:23.607Z,74.73
2018-06-16T01:38:24.991Z,74.93
2018-06-16T01:39:26.374Z,75.02
2018-06-16T01:40:27.764Z,75.12
2018-06-16T01:41:29.151Z,75.12
2018-06-16T01:42:30.539Z,74.83
2018-06-16T01:43:31.927Z,75.70
2018-06-16T01:44:34.024Z,75.31
2018-06-16T01:45:35.407Z,75.12
2018-06-16T01:46:36.792Z,75.02
2018-06-16T01:47:38.181Z,75.40
2018-06-16T01:48:39.565Z,75.31
2018-06-16T01:49:40.937Z,75.50
2018-06-16T01:50:42.327Z,75.50
2018-06-16T01:51:43.712Z,75.31
2018-06-16T01:52:45.100Z,75.40
2018-06-16T01:53:46.487Z,76.07
2018-06-16T01:54:47.874Z,76.07
2018-06-16T01:55:49.257Z,75.40
2018-06-16T01:56:50.646Z,75.79
2018-06-16T01:57:52.038Z,76.75
2018-06-16T01:58:53.426Z,76.56
2018-06-16T01:59:54.807Z,75.79
2018-06-16T02:00:56.190Z,75.60
2018-06-16T02:01:57.582Z,75.50
2018-06-16T02:02:58.971Z,75.98
2018-06-16T02:04:00.353Z,76.27
2018-06-16T02:05:01.744Z,75.89
2018-06-16T02:06:03.127Z,75.79
2018-06-16T02:07:04.510Z,75.89
2018-06-16T02:08:05.904Z,75.79
2018-06-16T02:09:07.294Z,75.89
2018-06-16T02:10:08.682Z,76.17
2018-06-16T02:11:10.073Z,76.17
2018-06-16T02:12:11.463Z,76.56
2018-06-16T02:13:12.843Z,76.46
2018-06-16T02:14:14.235Z,76.27
2018-06-16T02:15:15.625Z,76.07
2018-06-16T02:16:17.006Z,76.65
2018-06-16T02:17:18.386Z,76.56
2018-06-16T02:18:19.775Z,76.84
2018-06-16T02:19:21.167Z,76.56
2018-06-16T02:20:22.541Z,76.75
2018-06-16T02:21:23.930Z,77.23
2018-06-16T02:22:25.314Z,77.33
2018-06-16T02:23:26.698Z,76.94
2018-06-16T02:24:28.084Z,76.84
2018-06-16T02:25:29.472Z,77.33
2018-06-16T02:26:30.854Z,77.23
2018-06-16T02:27:32.240Z,76.94
2018-06-16T02:28:33.628Z,77.23
2018-06-16T02:29:35.016Z,77.51
2018-06-16T02:30:36.400Z,76.94
2018-06-16T02:31:37.783Z,77.13
2018-06-16T02:32:39.172Z,77.23
2018-06-16T02:33:40.553Z,77.51
2018-06-16T02:34:41.943Z,77.61
2018-06-16T02:35:43.333Z,77.61
2018-06-16T02:36:44.725Z,77.71
2018-06-16T02:37:46.115Z,78.09
2018-06-16T02:38:47.496Z,78.28
2018-06-16T02:39:48.888Z,78.47
2018-06-16T02:40:50.265Z,78.28
2018-06-16T02:41:51.657Z,78.67
2018-06-16T02:42:53.048Z,78.57
2018-06-16T02:43:54.429Z,78.77
2018-06-16T02:44:55.814Z,78.53
2018-06-16T02:45:57.201Z,79.01
2018-06-16T02:46:58.589Z,78.92
2018-06-16T02:47:59.977Z,78.82
2018-06-16T02:49:01.361Z,79.14
2018-06-16T02:50:02.805Z,79.11
2018-06-16T02:51:04.152Z,79.30
2018-06-16T02:52:05.543Z,79.72
2018-06-16T02:53:06.943Z,79.68
2018-06-16T02:54:08.308Z,80.16
2018-06-16T02:55:09.694Z,80.16
2018-06-16T02:56:11.074Z,80.07
2018-06-16T02:57:12.464Z,79.78
2018-06-16T02:58:13.846Z,80.01
2018-06-16T02:59:15.235Z,80.20
2018-06-16T03:00:16.621Z,80.64
2018-06-16T03:01:18.007Z,80.45
2018-06-16T03:02:19.400Z,80.64
2018-06-16T03:03:20.841Z,80.83
2018-06-16T03:04:22.178Z,81.02
2018-06-16T03:05:23.564Z,81.41
2018-06-16T03:06:25.360Z,81.60
2018-06-16T03:07:26.741Z,81.31
2018-06-16T03:08:28.131Z,81.22
2018-06-16T03:09:29.519Z,81.22
2018-06-16T03:10:30.907Z,81.60
2018-06-16T03:11:32.299Z,81.51
2018-06-16T03:12:33.685Z,82.27
2018-06-16T03:13:35.075Z,81.79
2018-06-16T03:14:36.464Z,81.98
2018-06-16T03:15:38.812Z,82.08
2018-06-16T03:16:40.212Z,82.08
2018-06-16T03:17:41.599Z,82.08
2018-06-16T03:18:42.991Z,82.18
2018-06-16T03:19:44.367Z,82.08
2018-06-16T03:20:45.764Z,82.08
2018-06-16T03:21:47.143Z,82.18
2018-06-16T03:22:48.533Z,82.08
2018-06-16T03:23:49.919Z,81.98
2018-06-16T03:24:51.314Z,82.18
2018-06-16T03:25:52.698Z,82.51
2018-06-16T03:26:54.088Z,82.21
2018-06-16T03:27:55.478Z,82.60
2018-06-16T03:28:56.860Z,82.37
2018-06-16T03:29:58.252Z,82.60
2018-06-16T03:30:59.643Z,82.85
2018-06-16T03:32:01.038Z,82.60
2018-06-16T03:33:02.437Z,82.70
2018-06-16T03:34:04.743Z,83.27
2018-06-16T03:35:06.135Z,83.47
2018-06-16T03:36:08.082Z,83.04
2018-06-16T03:37:09.462Z,83.23
2018-06-16T03:38:10.855Z,83.61
2018-06-16T03:39:12.249Z,83.65
2018-06-16T03:40:13.636Z,83.37
2018-06-16T03:41:15.032Z,83.37
2018-06-16T03:42:16.424Z,83.75
2018-06-16T03:43:17.816Z,83.47
2018-06-16T03:44:19.205Z,83.27
2018-06-16T03:45:20.590Z,83.37
2018-06-16T03:46:21.985Z,83.65
2018-06-16T03:47:23.369Z,83.37
2018-06-16T03:48:24.764Z,83.75
2018-06-16T03:49:26.153Z,83.37
2018-06-16T03:50:27.537Z,83.47
2018-06-16T03:51:28.927Z,84.04
2018-06-16T03:52:30.320Z,83.94
2018-06-16T03:53:31.708Z,83.75
2018-06-16T03:54:33.096Z,84.04
2018-06-16T03:55:34.478Z,83.94
2018-06-16T03:56:35.878Z,84.42
2018-06-16T03:57:37.260Z,84.71
2018-06-16T03:58:38.660Z,84.52
2018-06-16T03:59:40.059Z,84.42
2018-06-16T04:00:41.450Z,84.42
2018-06-16T04:01:42.846Z,84.71
2018-06-16T04:02:44.239Z,84.33
2018-06-16T04:03:45.626Z,84.04
2018-06-16T04:04:47.018Z,84.04
2018-06-16T04:05:48.413Z,84.04
2018-06-16T04:06:49.801Z,84.23
2018-06-16T04:07:51.189Z,84.52
2018-06-16T04:08:52.578Z,84.71
2018-06-16T04:09:53.965Z,84.52
2018-06-16T04:10:55.348Z,84.42
2018-06-16T04:11:56.743Z,84.91
2018-06-16T04:12:58.133Z,84.91
2018-06-16T04:13:59.527Z,84.61
2018-06-16T04:15:00.920Z,85.10
2018-06-16T04:16:02.308Z,84.71
2018-06-16T04:17:03.700Z,85.10
2018-06-16T04:18:06.007Z,84.61
2018-06-16T04:19:07.392Z,84.56
2018-06-16T04:20:08.789Z,84.66
2018-06-16T04:21:10.181Z,84.75
2018-06-16T04:22:11.577Z,84.85
2018-06-16T04:23:12.968Z,84.18
2018-06-16T04:24:14.363Z,84.18
2018-06-16T04:25:15.765Z,84.56
2018-06-16T04:26:17.151Z,84.27
2018-06-16T04:27:18.550Z,84.37
2018-06-16T04:28:19.934Z,84.56
2018-06-16T04:29:21.335Z,84.66
2018-06-16T04:30:22.706Z,84.27
2018-06-16T04:31:24.105Z,84.60
2018-06-16T04:32:25.484Z,84.56
2018-06-16T04:33:26.879Z,84.18
2018-06-16T04:34:28.263Z,83.70
2018-06-16T04:35:29.666Z,83.84
2018-06-16T04:36:31.662Z,83.45
2018-06-16T04:37:33.044Z,83.64
2018-06-16T04:38:34.443Z,83.54
2018-06-16T04:39:35.830Z,82.78
2018-06-16T04:40:37.212Z,82.97
2018-06-16T04:41:38.614Z,82.53
2018-06-16T04:42:40.006Z,82.73
2018-06-16T04:43:41.397Z,82.34
2018-06-16T04:44:42.786Z,82.15
2018-06-16T04:45:44.241Z,81.86
2018-06-16T04:46:45.522Z,81.19
2018-06-16T04:47:46.920Z,81.32
2018-06-16T04:48:48.319Z,81.52
2018-06-16T04:49:49.715Z,80.17
2018-06-16T04:50:51.107Z,79.82
2018-06-16T04:51:52.498Z,78.96
2018-06-16T04:52:53.892Z,77.84
2018-06-16T04:53:55.278Z,77.08
2018-06-16T04:54:56.672Z,76.98
2018-06-16T04:55:58.072Z,76.98
2018-06-16T04:56:59.537Z,77.17
2018-06-16T04:58:00.850Z,77.26
2018-06-16T04:59:02.241Z,76.78
2018-06-16T05:00:03.630Z,76.78
2018-06-16T05:01:05.022Z,76.50
2018-06-16T05:02:06.413Z,76.69
2018-06-16T05:03:07.816Z,77.17
2018-06-16T05:04:09.235Z,76.69
2018-06-16T05:05:10.619Z,76.50
2018-06-16T05:06:12.009Z,76.69
2018-06-16T05:07:14.104Z,76.40
2018-06-16T05:08:15.495Z,76.59
2018-06-16T05:09:16.891Z,76.50
2018-06-16T05:10:18.292Z,76.78
2018-06-16T05:11:19.673Z,77.36
2018-06-16T05:12:21.061Z,76.98
2018-06-16T05:13:22.462Z,76.98
2018-06-16T05:14:24.578Z,77.65
2018-06-16T05:15:25.970Z,77.08
2018-06-16T05:16:27.370Z,77.46
2018-06-16T05:17:28.759Z,76.98
2018-06-16T05:18:30.150Z,76.63
2018-06-16T05:19:31.530Z,76.09
2018-06-16T05:20:32.932Z,75.23
2018-06-16T05:21:34.320Z,74.26
2018-06-16T05:22:35.706Z,73.82
2018-06-16T05:23:37.108Z,74.20
2018-06-16T05:24:38.515Z,73.43
2018-06-16T05:25:39.964Z,73.62
2018-06-16T05:26:41.324Z,72.95
2018-06-16T05:27:42.721Z,73.33
2018-06-16T05:28:44.129Z,73.85
2018-06-16T05:29:45.512Z,72.02
2018-06-16T05:30:46.908Z,71.83
2018-06-16T05:31:48.301Z,72.02
2018-06-16T05:32:49.707Z,72.21
2018-06-16T05:33:51.108Z,71.73
2018-06-16T05:34:53.146Z,71.34
2018-06-16T05:35:54.538Z,70.61
2018-06-16T05:36:55.931Z,70.61
2018-06-16T05:37:57.333Z,70.42
2018-06-16T05:38:58.739Z,69.68
2018-06-16T05:40:00.134Z,68.17
2018-06-16T05:41:01.528Z,65.62
2018-06-16T05:42:02.918Z,63.92
2018-06-16T05:43:04.316Z,62.50
2018-06-16T05:44:05.715Z,61.27
2018-06-16T05:45:07.111Z,61.27
2018-06-16T05:46:08.509Z,60.69
2018-06-16T05:47:09.902Z,59.94
2018-06-16T05:48:12.019Z,59.27
2018-06-16T05:49:13.415Z,58.62
2018-06-16T05:50:14.804Z,57.00
2018-06-16T05:51:16.207Z,55.77
2018-06-16T05:52:17.606Z,55.24
2018-06-16T05:53:19.022Z,54.27
2018-06-16T05:54:20.414Z,53.32
2018-06-16T05:55:21.816Z,53.42
2018-06-16T05:56:23.219Z,52.47
2018-06-16T05:57:24.613Z,52.35
2018-06-16T05:58:26.020Z,51.99
2018-06-16T05:59:27.418Z,50.82
2018-06-16T06:00:28.825Z,50.87
2018-06-16T06:01:30.229Z,49.92
2018-06-16T06:02:31.635Z,48.88
2018-06-16T06:03:33.050Z,48.88
2018-06-16T06:04:34.459Z,47.92
2018-06-16T06:05:35.859Z,47.13
2018-06-16T06:06:37.271Z,47.05
2018-06-16T06:07:38.669Z,46.83
2018-06-16T06:08:40.078Z,46.86
2018-06-16T06:09:42.319Z,46.20
2018-06-16T06:10:43.715Z,46.20
2018-06-16T06:11:45.127Z,45.12
2018-06-16T06:12:46.530Z,45.34
2018-06-16T06:13:47.948Z,44.76
2018-06-16T06:14:49.338Z,44.38
2018-06-16T06:15:50.806Z,43.53
2018-06-16T06:16:52.144Z,43.02
2018-06-16T06:17:53.554Z,43.32
2018-06-16T06:18:54.948Z,43.41
2018-06-16T06:19:56.378Z,43.32
2018-06-16T06:20:57.781Z,43.33
2018-06-16T06:21:59.188Z,42.85
2018-06-16T06:23:00.591Z,43.04
2018-06-16T06:24:02.005Z,42.85
2018-06-16T06:25:03.421Z,42.73
2018-06-16T06:26:04.819Z,43.33
2018-06-16T06:27:06.221Z,43.73
2018-06-16T06:28:07.637Z,42.97
2018-06-16T06:29:09.044Z,42.65
2018-06-16T06:30:10.465Z,42.94
2018-06-16T06:31:11.877Z,43.02
2018-06-16T06:32:13.285Z,43.61
2018-06-16T06:33:14.709Z,44.17
2018-06-16T06:34:16.103Z,44.37
2018-06-16T06:35:17.523Z,44.07
2018-06-16T06:36:18.936Z,44.27
2018-06-16T06:37:20.351Z,44.34
2018-06-16T06:38:21.762Z,44.44
2018-06-16T06:39:23.159Z,45.39
2018-06-16T06:40:24.568Z,45.76
2018-06-16T06:41:25.978Z,46.54
2018-06-16T06:42:27.392Z,46.25
2018-06-16T06:43:28.860Z,46.93
2018-06-16T06:44:30.218Z,46.64
2018-06-16T06:45:31.626Z,46.44
2018-06-16T06:46:33.033Z,46.15
2018-06-16T06:47:35.361Z,46.34
2018-06-16T06:48:36.788Z,46.66
2018-06-16T06:49:38.189Z,46.15
2018-06-16T06:50:39.597Z,46.34
2018-06-16T06:51:40.999Z,46.76
2018-06-16T06:52:42.410Z,45.78
2018-06-16T06:53:43.819Z,44.90
2018-06-16T06:54:45.225Z,45.20
2018-06-16T06:55:46.637Z,45.32
2018-06-16T06:56:48.055Z,45.68
2018-06-16T06:57:49.468Z,45.71
2018-06-16T06:58:50.869Z,45.20
2018-06-16T06:59:52.277Z,46.17
2018-06-16T07:00:53.692Z,45.78
2018-06-16T07:01:55.106Z,45.86
2018-06-16T07:02:56.514Z,46.15
2018-06-16T07:03:57.963Z,46.25
2018-06-16T07:05:00.132Z,45.57
2018-06-16T07:06:01.544Z,46.05
2018-06-16T07:07:02.946Z,46.86
2018-06-16T07:08:04.925Z,46.83
2018-06-16T07:09:06.334Z,46.66
2018-06-16T07:10:07.740Z,45.49
2018-06-16T07:11:09.148Z,44.34
2018-06-16T07:12:10.550Z,43.47
2018-06-16T07:13:11.964Z,43.27
2018-06-16T07:14:13.367Z,43.18
2018-06-16T07:15:14.775Z,43.25
2018-06-16T07:16:16.182Z,43.47
2018-06-16T07:17:17.594Z,44.13
2018-06-16T07:18:19.015Z,44.96
2018-06-16T07:19:20.421Z,45.81
2018-06-16T07:20:21.811Z,47.61
2018-06-16T07:21:23.220Z,49.05
2018-06-16T07:22:24.621Z,50.58
2018-06-16T07:23:26.019Z,51.06
2018-06-16T07:24:27.421Z,52.30
2018-06-16T07:25:28.845Z,53.73
2018-06-16T07:26:30.224Z,54.67
2018-06-16T07:27:31.638Z,54.86
2018-06-16T07:28:33.032Z,54.84
2018-06-16T07:29:34.445Z,55.04
2018-06-16T07:30:35.846Z,54.16
2018-06-16T07:31:37.242Z,54.43
2018-06-16T07:32:38.643Z,54.91
2018-06-16T07:33:40.053Z,56.07
2018-06-16T07:34:41.458Z,56.07
2018-06-16T07:35:42.858Z,56.26
2018-06-16T07:36:44.256Z,56.36
2018-06-16T07:37:45.649Z,55.78
2018-06-16T07:38:47.067Z,55.88
2018-06-16T07:39:48.450Z,56.36
2018-06-16T07:40:49.844Z,56.07
2018-06-16T07:41:51.250Z,55.30
2018-06-16T07:42:52.662Z,55.10
2018-06-16T07:43:54.076Z,55.00
2018-06-16T07:44:55.471Z,55.68
2018-06-16T07:45:56.863Z,55.20
2018-06-16T07:46:58.273Z,55.04
2018-06-16T07:47:59.673Z,54.52
2018-06-16T07:49:01.073Z,54.06
2018-06-16T07:50:02.472Z,54.74
2018-06-16T07:51:03.882Z,54.33
2018-06-16T07:52:06.112Z,54.71
2018-06-16T07:53:07.546Z,54.06
2018-06-16T07:54:08.921Z,55.32
2018-06-16T07:55:10.318Z,54.84
2018-06-16T07:56:11.711Z,54.06
2018-06-16T07:57:13.137Z,54.03
2018-06-16T07:58:14.517Z,55.20
2018-06-16T07:59:15.940Z,54.81
2018-06-16T08:00:17.348Z,55.58
2018-06-16T08:01:18.740Z,55.00
2018-06-16T08:02:20.133Z,55.10
2018-06-16T08:03:21.538Z,55.58
2018-06-16T08:04:22.932Z,56.07
2018-06-16T08:05:24.328Z,55.49
2018-06-16T08:06:25.731Z,55.30
2018-06-16T08:07:27.128Z,55.46
2018-06-16T08:08:28.531Z,56.24
2018-06-16T08:09:29.925Z,55.68
2018-06-16T08:10:31.323Z,55.56
2018-06-16T08:11:32.721Z,55.76
2018-06-16T08:12:34.121Z,55.56
2018-06-16T08:13:35.531Z,56.34
2018-06-16T08:14:36.918Z,56.56
2018-06-16T08:15:38.361Z,55.00
2018-06-16T08:16:39.727Z,54.71
2018-06-16T08:17:41.121Z,54.81
2018-06-16T08:18:42.532Z,54.62
2018-06-16T08:19:43.936Z,53.75
2018-06-16T08:20:45.336Z,53.94
2018-06-16T08:21:46.740Z,53.85
2018-06-16T08:22:48.139Z,53.94
2018-06-16T08:23:49.541Z,53.75
2018-06-16T08:24:50.943Z,53.85
2018-06-16T08:25:52.338Z,53.94
2018-06-16T08:26:53.736Z,54.33
2018-06-16T08:27:55.142Z,53.58
2018-06-16T08:28:56.538Z,53.77
2018-06-16T08:29:58.546Z,53.49
2018-06-16T08:30:59.267Z,53.39
2018-06-16T08:32:00.677Z,53.67
2018-06-16T08:33:02.067Z,52.71
2018-06-16T08:34:03.463Z,52.90
2018-06-16T08:35:04.873Z,52.12
2018-06-16T08:36:06.267Z,52.71
2018-06-16T08:37:07.671Z,53.97
2018-06-16T08:38:09.071Z,53.77
2018-06-16T08:39:10.473Z,53.67
2018-06-16T08:40:11.871Z,53.67
2018-06-16T08:41:13.282Z,54.52
2018-06-16T08:42:14.691Z,54.16
2018-06-16T08:43:16.105Z,53.87
2018-06-16T08:44:17.488Z,53.77
2018-06-16T08:45:18.885Z,53.67
2018-06-16T08:46:20.291Z,54.26
2018-06-16T08:47:21.684Z,53.58
2018-06-16T08:48:23.085Z,53.87
2018-06-16T08:49:24.475Z,53.65
2018-06-16T08:50:25.877Z,54.62
2018-06-16T08:51:27.278Z,54.23
2018-06-16T08:52:28.678Z,55.00
2018-06-16T08:53:30.082Z,55.20
2018-06-16T08:54:31.482Z,55.00
2018-06-16T08:55:32.946Z,55.20
2018-06-16T08:56:34.284Z,55.10
2018-06-16T08:57:35.672Z,55.68
2018-06-16T08:58:37.077Z,55.98
2018-06-16T08:59:38.468Z,56.46
2018-06-16T09:00:39.869Z,56.56
2018-06-16T09:01:41.276Z,55.88
2018-06-16T09:02:42.666Z,56.16
2018-06-16T09:03:44.065Z,57.01
2018-06-16T09:04:45.467Z,57.20
2018-06-16T09:05:46.852Z,56.82
2018-06-16T09:06:48.254Z,57.11
2018-06-16T09:07:49.649Z,57.11
2018-06-16T09:08:51.050Z,56.82
2018-06-16T09:09:52.449Z,57.40
2018-06-16T09:10:53.853Z,57.69
2018-06-16T09:11:55.240Z,57.69
2018-06-16T09:12:56.645Z,57.59
2018-06-16T09:13:58.051Z,57.79
2018-06-16T09:14:59.443Z,58.37
2018-06-16T09:16:00.841Z,57.01
2018-06-16T09:17:02.259Z,56.60
2018-06-16T09:18:03.668Z,56.60
2018-06-16T09:19:05.065Z,57.66
2018-06-16T09:20:06.458Z,57.76
2018-06-16T09:21:07.864Z,56.60
2018-06-16T09:22:09.263Z,57.46
2018-06-16T09:23:10.644Z,58.14
2018-06-16T09:24:12.055Z,58.44
2018-06-16T09:25:13.443Z,58.63
2018-06-16T09:26:14.833Z,59.31
2018-06-16T09:27:16.228Z,58.63
2018-06-16T09:28:17.624Z,58.82
2018-06-16T09:29:19.028Z,59.38
2018-06-16T09:30:20.430Z,59.86
2018-06-16T09:31:21.830Z,59.66
2018-06-16T09:32:23.229Z,60.72
2018-06-16T09:33:24.630Z,60.05
2018-06-16T09:34:26.030Z,59.76
2018-06-16T09:35:27.419Z,59.66
2018-06-16T09:36:28.821Z,60.05
2018-06-16T09:37:30.223Z,58.34
2018-06-16T09:38:31.623Z,58.72
2018-06-16T09:39:33.030Z,58.72
2018-06-16T09:40:34.417Z,57.56
2018-06-16T09:41:35.818Z,57.11
2018-06-16T09:42:37.220Z,57.79
2018-06-16T09:43:38.621Z,56.24
2018-06-16T09:44:40.015Z,56.94
2018-06-16T09:45:41.419Z,56.07
2018-06-16T09:46:42.827Z,56.16
2018-06-16T09:47:44.248Z,55.49
2018-06-16T09:48:45.661Z,55.71
2018-06-16T09:49:47.059Z,56.10
2018-06-16T09:50:48.461Z,54.35
2018-06-16T09:51:49.855Z,54.26
2018-06-16T09:52:51.260Z,53.70
2018-06-16T09:53:52.655Z,53.41
2018-06-16T09:54:54.051Z,53.22
2018-06-16T09:55:55.456Z,53.61
2018-06-16T09:56:56.852Z,53.41
2018-06-16T09:57:58.253Z,52.12
2018-06-16T09:58:59.644Z,53.29
2018-06-16T10:00:01.051Z,53.29
2018-06-16T10:01:02.450Z,53.51
2018-06-16T10:02:03.806Z,53.61
2018-06-16T10:03:05.210Z,52.12
2018-06-16T10:04:06.605Z,52.15
2018-06-16T10:05:08.010Z,52.54
2018-06-16T10:06:09.415Z,52.06
2018-06-16T10:07:10.796Z,53.31
2018-06-16T10:08:12.197Z,52.06
2018-06-16T10:09:13.597Z,53.31
2018-06-16T10:10:14.993Z,52.54
2018-06-16T10:11:16.400Z,53.41
2018-06-16T10:12:17.809Z,53.61
2018-06-16T10:13:19.209Z,51.86
2018-06-16T10:14:20.613Z,51.59
2018-06-16T10:15:22.012Z,51.89
2018-06-16T10:16:23.410Z,51.11
2018-06-16T10:17:24.808Z,50.72
2018-06-16T10:18:26.209Z,51.67
2018-06-16T10:19:27.608Z,52.08
2018-06-16T10:20:29.726Z,51.79
2018-06-16T10:21:31.132Z,51.21
2018-06-16T10:22:32.524Z,51.21
2018-06-16T10:23:33.948Z,50.04
2018-06-16T10:24:35.328Z,49.66
2018-06-16T10:25:36.732Z,48.39
2018-06-16T10:26:38.136Z,48.76
2018-06-16T10:27:39.543Z,49.54
2018-06-16T10:28:40.940Z,50.89
2018-06-16T10:29:42.334Z,51.09
2018-06-16T10:30:43.730Z,51.16
2018-06-16T10:31:45.132Z,51.64
2018-06-16T10:32:46.523Z,52.32
2018-06-16T10:33:47.936Z,52.80
2018-06-16T10:34:49.340Z,53.58
2018-06-16T10:35:50.733Z,53.39
2018-06-16T10:36:52.129Z,53.29
2018-06-16T10:37:53.535Z,52.51
2018-06-16T10:38:54.929Z,52.32
2018-06-16T10:39:56.347Z,52.71
2018-06-16T10:40:57.753Z,51.74
2018-06-16T10:41:59.146Z,52.12
2018-06-16T10:43:00.545Z,51.84
2018-06-16T10:44:01.965Z,52.42
2018-06-16T10:45:03.374Z,52.42
2018-06-16T10:46:04.759Z,52.22
2018-06-16T10:47:06.160Z,52.51
2018-06-16T10:48:07.692Z,53.31
2018-06-16T10:49:09.090Z,51.76
2018-06-16T10:50:10.482Z,50.99
2018-06-16T10:51:11.905Z,51.45
2018-06-16T10:52:13.292Z,51.67
2018-06-16T10:53:14.692Z,52.32
2018-06-16T10:54:16.098Z,52.54
2018-06-16T10:55:17.496Z,51.18
2018-06-16T10:56:18.906Z,50.48
2018-06-16T10:57:20.302Z,51.09
2018-06-16T10:58:21.702Z,50.60
2018-06-16T10:59:23.104Z,50.96
2018-06-16T11:00:24.515Z,51.37
2018-06-16T11:01:25.898Z,51.37
2018-06-16T11:02:27.290Z,51.57
2018-06-16T11:03:28.699Z,51.47
2018-06-16T11:04:30.089Z,52.34
2018-06-16T11:05:31.498Z,51.57
2018-06-16T11:06:32.889Z,51.37
2018-06-16T11:07:34.294Z,50.79
2018-06-16T11:08:35.690Z,50.60
2018-06-16T11:09:37.100Z,50.12
2018-06-16T11:10:38.496Z,50.41
2018-06-16T11:11:39.896Z,50.21
2018-06-16T11:12:41.293Z,50.12
2018-06-16T11:13:42.688Z,50.60
2018-06-16T11:14:44.083Z,50.60
2018-06-16T11:15:45.484Z,50.50
2018-06-16T11:16:46.876Z,50.89
2018-06-16T11:17:48.286Z,51.09
2018-06-16T11:18:49.686Z,50.70
2018-06-16T11:19:51.080Z,50.60
2018-06-16T11:20:52.468Z,50.53
2018-06-16T11:21:53.872Z,50.34
2018-06-16T11:22:55.271Z,50.53
2018-06-16T11:23:56.672Z,50.14
2018-06-16T11:24:58.061Z,48.03
2018-06-16T11:25:59.484Z,46.77
2018-06-16T11:27:00.879Z,47.16
2018-06-16T11:28:02.271Z,47.74
2018-06-16T11:29:03.669Z,46.75
2018-06-16T11:30:05.067Z,47.42
2018-06-16T11:31:06.475Z,47.91
2018-06-16T11:32:07.882Z,48.49
2018-06-16T11:33:09.278Z,48.30
2018-06-16T11:34:10.679Z,49.27
2018-06-16T11:35:12.823Z,49.75
2018-06-16T11:36:16.476Z,50.50
2018-06-16T11:37:18.692Z,50.50
2018-06-16T11:38:22.513Z,50.89
2018-06-16T11:39:23.919Z,50.48
2018-06-16T11:40:25.323Z,50.67
2018-06-16T11:41:26.724Z,50.89
2018-06-16T11:42:28.125Z,51.18
2018-06-16T11:43:29.522Z,50.89
2018-06-16T11:44:31.094Z,50.53
2018-06-16T11:45:32.484Z,49.39
2018-06-16T11:46:33.920Z,48.15
2018-06-16T11:47:36.544Z,45.17
2018-06-16T11:48:38.188Z,43.90
2018-06-16T11:49:39.559Z,42.95
2018-06-16T11:50:40.964Z,42.87
2018-06-16T11:51:42.768Z,41.73
2018-06-16T11:52:44.163Z,41.46
2018-06-16T11:53:45.557Z,41.16
2018-06-16T11:54:46.964Z,40.41
2018-06-16T11:55:48.362Z,39.82
2018-06-16T11:56:50.948Z,38.85
2018-06-16T11:57:53.271Z,38.48
2018-06-16T11:58:55.274Z,37.79
2018-06-16T11:59:57.921Z,37.91
2018-06-16T12:00:59.792Z,36.06
2018-06-16T12:02:02.291Z,35.49
2018-06-16T12:03:04.317Z,34.61
2018-06-16T12:04:06.252Z,35.22
2018-06-16T12:05:07.651Z,35.12
2018-06-16T12:06:09.139Z,35.92
2018-06-16T12:07:10.549Z,34.53
2018-06-16T12:08:13.536Z,35.12
2018-06-16T12:09:14.931Z,34.63
2018-06-16T12:10:16.340Z,34.75
2018-06-16T12:11:17.921Z,34.83
2018-06-16T12:12:20.440Z,35.71
2018-06-16T12:13:22.929Z,36.39
2018-06-16T12:14:24.336Z,37.17
2018-06-16T12:15:25.734Z,36.98
2018-06-16T12:16:27.911Z,34.94
2018-06-16T12:17:29.302Z,33.77
2018-06-16T12:18:30.714Z,32.79
2018-06-16T12:19:33.400Z,32.39
2018-06-16T12:20:34.800Z,33.46
2018-06-16T12:21:38.636Z,33.95
2018-06-16T12:22:40.037Z,34.24
2018-06-16T12:23:41.440Z,34.53
2018-06-16T12:24:42.866Z,34.61
2018-06-16T12:25:44.268Z,35.31
2018-06-16T12:26:45.671Z,34.53
2018-06-16T12:27:47.067Z,34.12
2018-06-16T12:28:48.466Z,34.50
2018-06-16T12:29:49.930Z,33.90
2018-06-16T12:30:51.232Z,34.37
2018-06-16T12:31:52.636Z,34.95
2018-06-16T12:32:54.060Z,35.65
2018-06-16T12:33:55.471Z,35.63
2018-06-16T12:34:56.866Z,34.56
2018-06-16T12:35:58.265Z,34.66
2018-06-16T12:36:59.667Z,35.34
2018-06-16T12:38:01.064Z,35.63
2018-06-16T12:39:02.452Z,35.73
2018-06-16T12:40:03.856Z,36.14
2018-06-16T12:41:05.255Z,36.06
2018-06-16T12:42:06.657Z,34.81
2018-06-16T12:43:08.056Z,34.14
2018-06-16T12:44:09.470Z,33.48
2018-06-16T12:45:10.852Z,32.89
2018-06-16T12:46:12.253Z,32.81
2018-06-16T12:47:13.646Z,33.40
2018-06-16T12:48:15.044Z,33.67
2018-06-16T12:49:16.440Z,34.34
2018-06-16T12:50:17.836Z,34.34
2018-06-16T12:51:20.135Z,34.59
2018-06-16T12:52:21.534Z,34.09
2018-06-16T12:53:22.950Z,34.66
2018-06-16T12:54:24.346Z,34.47
2018-06-16T12:55:25.753Z,35.13
2018-06-16T12:56:27.175Z,35.60
2018-06-16T12:57:28.614Z,36.18
2018-06-16T12:58:29.962Z,36.28
2018-06-16T12:59:31.361Z,36.08
2018-06-16T13:00:32.758Z,35.60
2018-06-16T13:01:34.166Z,35.89
2018-06-16T13:02:35.560Z,36.57
2018-06-16T13:03:36.970Z,36.26
2018-06-16T13:04:38.362Z,35.70
2018-06-16T13:05:39.769Z,35.10
2018-06-16T13:06:41.175Z,35.39
2018-06-16T13:07:42.573Z,35.78
2018-06-16T13:08:43.975Z,36.36
2018-06-16T13:09:46.063Z,34.70
2018-06-16T13:10:47.456Z,33.14